createdAt,value
2023-02-05T00:01:57.081Z,14.65
2023-02-05T00:04:24.507Z,11.52
2023-02-05T00:06:51.374Z,10.43
2023-02-05T00:09:18.600Z,11.57
2023-02-05T00:11:45.515Z,10.77
2023-02-05T00:14:12.835Z,11.32
2023-02-05T00:16:39.741Z,10.30
2023-02-05T00:19:07.661Z,11.55
2023-02-05T00:21:34.603Z,10.98
2023-02-05T00:24:01.805Z,9.98
2023-02-05T00:26:28.848Z,9.00
2023-02-05T00:28:56.549Z,10.88
2023-02-05T00:31:24.265Z,11.73
2023-02-05T00:33:52.232Z,10.07
2023-02-05T00:36:21.287Z,14.80
2023-02-05T00:38:48.675Z,9.30
2023-02-05T00:41:16.650Z,10.88
2023-02-05T00:43:44.406Z,13.05
2023-02-05T00:46:13.480Z,11.95
2023-02-05T00:48:41.800Z,13.27
2023-02-05T00:51:09.403Z,12.15
2023-02-05T00:53:37.064Z,10.73
2023-02-05T00:56:04.542Z,12.30
2023-02-05T00:58:31.994Z,9.90
2023-02-05T01:00:59.155Z,10.93
2023-02-05T01:03:26.459Z,9.13
2023-02-05T01:05:53.375Z,11.45
2023-02-05T01:08:20.581Z,10.00
2023-02-05T01:10:49.450Z,12.27
2023-02-05T01:13:18.343Z,11.45
2023-02-05T01:15:46.338Z,9.50
2023-02-05T01:18:14.279Z,13.48
2023-02-05T01:20:42.578Z,10.20
2023-02-05T01:23:11.592Z,12.48
2023-02-05T01:25:38.681Z,12.60
2023-02-05T01:28:06.930Z,10.07
2023-02-05T01:30:34.997Z,10.02
2023-02-05T01:33:03.551Z,12.93
2023-02-05T01:35:31.339Z,12.93
2023-02-05T01:37:58.784Z,10.75
2023-02-05T01:40:25.686Z,15.93
2023-02-05T01:42:52.904Z,10.88
2023-02-05T01:45:22.638Z,15.13
2023-02-05T01:47:59.041Z,13.45
2023-02-05T01:50:36.541Z,12.93
2023-02-05T01:53:08.639Z,11.90
2023-02-05T01:55:40.233Z,10.63
2023-02-05T01:58:08.478Z,12.80
2023-02-05T02:00:35.496Z,18.63
2023-02-05T02:03:03.932Z,13.10
2023-02-05T02:05:30.942Z,15.38
2023-02-05T02:07:58.421Z,16.48
2023-02-05T02:10:26.312Z,19.73
2023-02-05T02:12:54.884Z,12.38
2023-02-05T02:15:26.073Z,16.50
2023-02-05T02:18:17.912Z,15.48
2023-02-05T02:20:46.501Z,14.13
2023-02-05T02:23:27.783Z,12.55
2023-02-05T02:25:57.765Z,16.13
2023-02-05T02:28:31.007Z,11.48
2023-02-05T02:31:10.818Z,13.77
2023-02-05T02:33:50.529Z,15.27
2023-02-05T02:36:26.943Z,13.98
2023-02-05T02:39:14.017Z,17.77
2023-02-05T02:41:53.902Z,17.38
2023-02-05T02:44:31.153Z,14.23
2023-02-05T02:47:05.665Z,16.80
2023-02-05T02:49:41.272Z,12.27
2023-02-05T02:52:11.044Z,11.90
2023-02-05T02:54:41.412Z,11.85
2023-02-05T02:57:11.296Z,9.63
2023-02-05T02:59:43.100Z,16.07
2023-02-05T03:02:12.946Z,10.93
2023-02-05T03:04:44.198Z,15.45
2023-02-05T03:07:31.585Z,11.38
2023-02-05T03:10:08.262Z,12.93
2023-02-05T03:12:35.461Z,12.57
2023-02-05T03:15:03.252Z,12.95
2023-02-05T03:17:30.713Z,11.77
2023-02-05T03:20:15.390Z,13.02
2023-02-05T03:22:42.639Z,14.13
2023-02-05T03:25:10.677Z,13.07
2023-02-05T03:27:39.144Z,11.80
2023-02-05T03:30:07.978Z,10.73
2023-02-05T03:32:41.355Z,13.65
2023-02-05T03:35:26.887Z,9.25
2023-02-05T03:38:10.727Z,14.20
2023-02-05T03:40:46.200Z,12.10
2023-02-05T03:43:44.334Z,13.98
2023-02-05T03:46:25.189Z,11.70
2023-02-05T03:49:04.460Z,10.32
2023-02-05T03:51:59.473Z,8.23
2023-02-05T03:54:36.846Z,10.57
2023-02-05T03:57:11.646Z,12.73
2023-02-05T03:59:41.247Z,8.20
2023-02-05T04:02:10.571Z,11.27
2023-02-05T04:04:41.132Z,11.82
2023-02-05T04:07:09.251Z,11.13
2023-02-05T04:09:37.102Z,11.75
2023-02-05T04:12:05.265Z,10.05
2023-02-05T04:14:33.437Z,10.63
2023-02-05T04:17:01.104Z,11.77
2023-02-05T04:19:28.133Z,8.52
2023-02-05T04:21:58.446Z,11.57
2023-02-05T04:24:25.495Z,9.80
2023-02-05T04:26:53.402Z,8.45
2023-02-05T04:29:20.837Z,10.20
2023-02-05T04:31:50.920Z,11.82
2023-02-05T04:34:17.877Z,10.65
2023-02-05T04:36:46.080Z,9.32
2023-02-05T04:39:13.166Z,8.10
2023-02-05T04:41:41.306Z,7.55
2023-02-05T04:44:08.347Z,8.52
2023-02-05T04:46:35.606Z,9.70
2023-02-05T04:49:02.642Z,10.18
2023-02-05T04:51:47.850Z,10.48
2023-02-05T04:54:14.989Z,10.93
2023-02-05T04:56:41.930Z,9.98
2023-02-05T04:59:09.218Z,11.90
2023-02-05T05:01:36.492Z,11.95
2023-02-05T05:04:03.683Z,10.80
2023-02-05T05:06:30.998Z,7.68
2023-02-05T05:08:58.175Z,12.88
2023-02-05T05:11:25.838Z,9.75
2023-02-05T05:13:53.355Z,10.02
2023-02-05T05:16:20.542Z,15.43
2023-02-05T05:18:47.805Z,10.50
2023-02-05T05:21:14.778Z,11.30
2023-02-05T05:23:41.944Z,11.02
2023-02-05T05:26:11.401Z,10.65
2023-02-05T05:28:38.795Z,10.75
2023-02-05T05:31:17.315Z,12.10
2023-02-05T05:33:44.625Z,12.50
2023-02-05T05:36:11.618Z,14.27
2023-02-05T05:38:39.005Z,10.80
2023-02-05T05:41:25.242Z,11.50
2023-02-05T05:43:54.413Z,14.50
2023-02-05T05:46:24.229Z,10.85
2023-02-05T05:48:53.528Z,12.68
2023-02-05T05:51:21.918Z,11.40
2023-02-05T05:53:49.237Z,11.75
2023-02-05T05:56:17.042Z,12.10
2023-02-05T05:58:45.225Z,12.23
2023-02-05T06:01:14.065Z,14.32
2023-02-05T06:03:41.303Z,13.65
2023-02-05T06:06:10.461Z,14.82
2023-02-05T06:08:37.834Z,10.25
2023-02-05T06:11:04.840Z,16.45
2023-02-05T06:13:32.100Z,14.65
2023-02-05T06:15:59.062Z,15.07
2023-02-05T06:18:26.286Z,14.05
2023-02-05T06:20:53.207Z,10.77
2023-02-05T06:23:20.649Z,11.82
2023-02-05T06:25:47.752Z,10.15
2023-02-05T06:28:15.015Z,11.63
2023-02-05T06:30:41.942Z,10.35
2023-02-05T06:33:09.229Z,11.27
2023-02-05T06:35:36.666Z,9.93
2023-02-05T06:38:03.951Z,12.45
2023-02-05T06:40:30.858Z,9.43
2023-02-05T06:42:58.122Z,7.72
2023-02-05T06:45:24.986Z,9.68
2023-02-05T06:47:56.242Z,8.93
2023-02-05T06:50:24.144Z,8.88
2023-02-05T06:52:51.658Z,10.00
2023-02-05T06:55:18.868Z,11.93
2023-02-05T06:57:46.107Z,10.60
2023-02-05T07:00:13.994Z,7.85
2023-02-05T07:02:41.378Z,11.13
2023-02-05T07:05:09.085Z,9.18
2023-02-05T07:07:36.322Z,11.15
2023-02-05T07:10:03.578Z,9.65
2023-02-05T07:12:31.131Z,12.40
2023-02-05T07:14:57.997Z,8.13
2023-02-05T07:17:25.469Z,9.30
2023-02-05T07:19:52.444Z,8.50
2023-02-05T07:22:19.201Z,10.13
2023-02-05T07:24:46.417Z,8.98
2023-02-05T07:27:13.341Z,11.50
2023-02-05T07:29:40.537Z,10.13
2023-02-05T07:32:07.710Z,9.20
2023-02-05T07:34:35.224Z,8.75
2023-02-05T07:37:02.185Z,9.35
2023-02-05T07:39:29.416Z,8.02
2023-02-05T07:41:56.562Z,13.90
2023-02-05T07:44:34.822Z,8.00
2023-02-05T07:47:01.673Z,9.98
2023-02-05T07:49:29.258Z,8.88
2023-02-05T07:51:56.414Z,14.00
2023-02-05T07:54:24.642Z,8.95
2023-02-05T07:56:51.661Z,8.43
2023-02-05T07:59:18.794Z,9.70
2023-02-05T08:01:45.637Z,8.90
2023-02-05T08:04:12.879Z,9.38
2023-02-05T08:06:40.645Z,10.07
2023-02-05T08:09:07.810Z,9.15
2023-02-05T08:11:34.758Z,11.73
2023-02-05T08:14:02.447Z,8.40
2023-02-05T08:16:29.517Z,8.02
2023-02-05T08:18:56.736Z,9.00
2023-02-05T08:21:23.739Z,14.88
2023-02-05T08:23:51.252Z,9.23
2023-02-05T08:26:18.913Z,8.77
2023-02-05T08:28:46.284Z,9.38
2023-02-05T08:31:18.473Z,8.75
2023-02-05T08:33:47.818Z,7.90
2023-02-05T08:36:14.776Z,11.57
2023-02-05T08:38:42.279Z,10.23
2023-02-05T08:41:13.678Z,9.77
2023-02-05T08:43:47.322Z,9.10
2023-02-05T08:46:18.685Z,9.23
2023-02-05T08:48:47.635Z,9.23
2023-02-05T08:51:15.394Z,11.43
2023-02-05T08:53:42.582Z,9.50
2023-02-05T08:56:10.899Z,10.60
2023-02-05T08:58:39.338Z,9.57
2023-02-05T09:01:12.861Z,9.55
2023-02-05T09:03:40.529Z,9.48
2023-02-05T09:06:10.001Z,10.10
2023-02-05T09:08:37.676Z,9.85
2023-02-05T09:11:05.305Z,10.45
2023-02-05T09:13:33.674Z,8.75
2023-02-05T09:16:00.576Z,11.55
2023-02-05T09:18:27.867Z,11.07
2023-02-05T09:20:54.878Z,11.68
2023-02-05T09:23:22.909Z,12.02
2023-02-05T09:25:49.890Z,11.15
2023-02-05T09:28:17.379Z,13.68
2023-02-05T09:30:46.204Z,9.68
2023-02-05T09:33:13.798Z,11.05
2023-02-05T09:35:41.357Z,20.63
2023-02-05T09:38:10.024Z,11.10
2023-02-05T09:41:05.468Z,9.57
2023-02-05T09:43:50.760Z,9.30
2023-02-05T09:46:45.247Z,11.95
2023-02-05T09:49:34.830Z,10.32
2023-02-05T09:52:09.154Z,10.05
2023-02-05T09:54:41.927Z,9.82
2023-02-05T09:57:16.360Z,12.88
2023-02-05T09:59:46.946Z,10.05
2023-02-05T10:02:22.613Z,13.00
2023-02-05T10:04:52.419Z,12.05
2023-02-05T10:07:43.397Z,8.50
2023-02-05T10:10:26.794Z,10.80
2023-02-05T10:13:34.726Z,9.50
2023-02-05T10:16:23.291Z,11.30
2023-02-05T10:19:25.467Z,8.38
2023-02-05T10:22:26.620Z,6.60
2023-02-05T10:25:20.890Z,7.33
2023-02-05T10:27:57.262Z,8.57
2023-02-05T10:30:44.846Z,6.22
2023-02-05T10:33:18.906Z,3.60
2023-02-05T10:36:01.048Z,7.97
2023-02-05T10:38:33.915Z,6.30
2023-02-05T10:41:27.063Z,5.85
2023-02-05T10:44:07.687Z,5.03
2023-02-05T10:46:59.191Z,5.78
2023-02-05T10:49:29.796Z,5.50
2023-02-05T10:51:56.803Z,14.60
2023-02-05T10:54:30.504Z,10.02
2023-02-05T10:56:58.788Z,6.70
2023-02-05T10:59:27.979Z,5.78
2023-02-05T11:01:56.890Z,8.18
2023-02-05T11:04:46.179Z,9.23
2023-02-05T11:07:19.771Z,7.50
2023-02-05T11:09:47.033Z,7.70
2023-02-05T11:12:29.193Z,7.50
2023-02-05T11:14:59.659Z,12.30
2023-02-05T11:17:37.048Z,10.55
2023-02-05T11:20:27.405Z,7.22
2023-02-05T11:23:09.463Z,10.20
2023-02-05T11:25:36.806Z,8.63
2023-02-05T11:28:05.640Z,8.40
2023-02-05T11:30:55.926Z,7.57
2023-02-05T11:33:22.434Z,6.40
2023-02-05T11:36:15.613Z,10.23
2023-02-05T11:39:20.816Z,9.45
2023-02-05T11:41:48.612Z,8.15
2023-02-05T11:44:20.338Z,10.55
2023-02-05T11:46:48.023Z,13.27
2023-02-05T11:49:24.865Z,9.18
2023-02-05T11:51:55.678Z,10.82
2023-02-05T11:54:32.558Z,11.70
2023-02-05T11:57:01.417Z,12.35
2023-02-05T11:59:28.795Z,20.42
2023-02-05T12:02:34.330Z,13.70
2023-02-05T12:05:09.406Z,7.55
2023-02-05T12:07:43.190Z,6.82
2023-02-05T12:10:38.381Z,9.57
2023-02-05T12:13:45.571Z,7.25
2023-02-05T12:16:26.940Z,9.73
2023-02-05T12:19:26.587Z,12.02
2023-02-05T12:22:10.518Z,10.10
2023-02-05T12:24:56.500Z,14.13
2023-02-05T12:27:57.587Z,10.82
2023-02-05T12:30:30.627Z,9.35
2023-02-05T12:33:26.233Z,9.00
2023-02-05T12:36:05.650Z,9.75
2023-02-05T12:38:38.397Z,14.95
2023-02-05T12:41:11.687Z,9.60
2023-02-05T12:43:41.156Z,10.55
2023-02-05T12:46:18.282Z,8.02
2023-02-05T12:49:11.850Z,6.80
2023-02-05T12:52:14.359Z,7.97
2023-02-05T12:55:11.685Z,8.45
2023-02-05T12:57:44.767Z,8.32
2023-02-05T13:00:20.554Z,8.93
2023-02-05T13:03:08.972Z,8.43
2023-02-05T13:05:53.055Z,12.27
2023-02-05T13:08:32.133Z,7.40
2023-02-05T13:11:09.607Z,5.75
2023-02-05T13:13:53.729Z,6.63
2023-02-05T13:16:24.096Z,6.80
2023-02-05T13:19:01.544Z,6.83
2023-02-05T13:21:48.013Z,5.88
2023-02-05T13:24:36.934Z,7.28
2023-02-05T13:27:33.297Z,6.22
2023-02-05T13:30:04.843Z,10.23
2023-02-05T13:32:34.424Z,9.38
2023-02-05T13:35:02.079Z,7.47
2023-02-05T13:37:34.798Z,14.70
2023-02-05T13:40:24.157Z,8.10
2023-02-05T13:43:06.131Z,6.38
2023-02-05T13:46:05.791Z,7.25
2023-02-05T13:49:00.409Z,6.57
2023-02-05T13:51:32.274Z,6.55
2023-02-05T13:54:30.736Z,6.43
2023-02-05T13:57:27.316Z,10.68
2023-02-05T13:59:55.902Z,21.08
2023-02-05T14:02:41.993Z,7.53
2023-02-05T14:05:11.083Z,9.98
2023-02-05T14:07:50.128Z,7.20
2023-02-05T14:10:35.183Z,8.13
2023-02-05T14:13:36.773Z,6.43
2023-02-05T14:16:25.466Z,13.57
2023-02-05T14:19:01.761Z,9.82
2023-02-05T14:21:31.552Z,6.35
2023-02-05T14:24:03.931Z,7.85
2023-02-05T14:26:56.346Z,5.47
2023-02-05T14:29:43.793Z,12.70
2023-02-05T14:32:26.044Z,8.10
2023-02-05T14:35:28.925Z,10.00
2023-02-05T14:38:02.521Z,7.57
2023-02-05T14:40:37.958Z,7.88
2023-02-05T14:43:33.421Z,8.65
2023-02-05T14:46:06.166Z,6.90
2023-02-05T14:48:41.723Z,12.80
2023-02-05T14:51:24.827Z,10.15
2023-02-05T14:54:03.072Z,7.90
2023-02-05T14:56:48.046Z,7.57
2023-02-05T14:59:32.063Z,6.75
2023-02-05T15:02:00.170Z,13.80
2023-02-05T15:04:52.870Z,9.45
2023-02-05T15:07:24.965Z,6.60
2023-02-05T15:10:00.426Z,8.25
2023-02-05T15:12:33.401Z,10.77
2023-02-05T15:15:28.147Z,5.50
2023-02-05T15:18:02.393Z,6.43
2023-02-05T15:20:32.575Z,12.27
2023-02-05T15:23:18.263Z,9.67
2023-02-05T15:26:00.698Z,7.38
2023-02-05T15:28:35.318Z,7.28
2023-02-05T15:31:26.053Z,9.38
2023-02-05T15:34:02.182Z,9.63
2023-02-05T15:36:37.615Z,7.28
2023-02-05T15:39:26.997Z,7.53
2023-02-05T15:42:00.035Z,7.13
2023-02-05T15:44:33.580Z,7.95
2023-02-05T15:47:04.341Z,10.65
2023-02-05T15:49:36.890Z,10.38
2023-02-05T15:52:05.882Z,8.20
2023-02-05T15:54:35.934Z,8.35
2023-02-05T15:57:05.327Z,7.93
2023-02-05T15:59:33.887Z,8.27
2023-02-05T16:02:05.867Z,10.07
2023-02-05T16:04:39.020Z,9.52
2023-02-05T16:07:24.026Z,12.75
2023-02-05T16:09:54.570Z,9.07
2023-02-05T16:12:22.074Z,15.00
2023-02-05T16:15:04.765Z,8.52
2023-02-05T16:17:44.725Z,5.57
2023-02-05T16:20:23.415Z,7.50
2023-02-05T16:22:55.856Z,6.80
2023-02-05T16:25:44.222Z,7.28
2023-02-05T16:28:24.683Z,9.05
2023-02-05T16:30:56.246Z,6.65
2023-02-05T16:36:07.213Z,7.88
2023-02-05T16:38:35.521Z,7.75
2023-02-05T16:41:20.580Z,8.57
2023-02-05T16:43:48.103Z,9.63
2023-02-05T16:46:15.667Z,8.40
2023-02-05T16:48:45.573Z,10.77
2023-02-05T16:51:28.131Z,7.40
2023-02-05T16:53:55.013Z,7.22
2023-02-05T16:56:26.135Z,10.48
2023-02-05T16:58:56.399Z,8.77
2023-02-05T17:01:29.928Z,9.20
2023-02-05T17:03:57.380Z,8.35
2023-02-05T17:06:33.959Z,8.75
2023-02-05T17:09:01.309Z,10.55
2023-02-05T17:11:37.327Z,8.95
2023-02-05T17:14:26.066Z,9.43
2023-02-05T17:17:15.615Z,9.82
2023-02-05T17:19:42.849Z,9.43
2023-02-05T17:22:16.307Z,7.40
2023-02-05T17:24:49.339Z,8.98
2023-02-05T17:27:43.491Z,8.27
2023-02-05T17:30:16.258Z,8.57
2023-02-05T17:32:44.642Z,5.63
2023-02-05T17:35:16.007Z,8.10
2023-02-05T17:37:43.433Z,12.73
2023-02-05T17:40:13.208Z,12.90
2023-02-05T17:42:41.067Z,4.45
2023-02-05T17:45:19.799Z,5.43
2023-02-05T17:47:47.665Z,8.63
2023-02-05T17:50:15.510Z,6.63
2023-02-05T17:52:44.611Z,10.27
2023-02-05T17:55:17.255Z,11.32
2023-02-05T17:57:45.407Z,12.90
2023-02-05T18:00:19.458Z,11.57
2023-02-05T18:02:47.036Z,12.57
2023-02-05T18:05:14.312Z,12.60
2023-02-05T18:07:46.312Z,14.93
2023-02-05T18:10:23.607Z,14.85
2023-02-05T18:12:52.001Z,10.48
2023-02-05T18:15:19.846Z,15.55
2023-02-05T18:17:47.774Z,14.55
2023-02-05T18:20:16.253Z,14.90
2023-02-05T18:22:43.448Z,16.85
2023-02-05T18:25:10.392Z,16.48
2023-02-05T18:27:38.256Z,15.40
2023-02-05T18:30:05.859Z,16.42
2023-02-05T18:32:33.324Z,16.17
2023-02-05T18:35:00.547Z,17.05
2023-02-05T18:37:27.998Z,14.90
2023-02-05T18:39:54.979Z,18.83
2023-02-05T18:42:23.222Z,17.73
2023-02-05T18:44:50.336Z,17.02
2023-02-05T18:47:17.522Z,16.83
2023-02-05T18:49:44.629Z,19.77
2023-02-05T18:52:14.068Z,17.52
2023-02-05T18:54:41.004Z,15.70
2023-02-05T18:57:08.290Z,19.40
2023-02-05T18:59:36.871Z,17.75
2023-02-05T19:02:04.158Z,20.48
2023-02-05T19:04:33.152Z,17.27
2023-02-05T19:07:01.187Z,19.55
2023-02-05T19:09:28.616Z,20.50
2023-02-05T19:11:56.321Z,22.83
2023-02-05T19:14:24.763Z,25.25
2023-02-05T19:16:53.072Z,25.60
2023-02-05T19:19:23.417Z,30.75
2023-02-05T19:21:53.684Z,26.27
2023-02-05T19:24:21.613Z,24.63
2023-02-05T19:26:50.004Z,30.05
2023-02-05T19:29:19.513Z,29.08
2023-02-05T19:31:47.298Z,29.48
2023-02-05T19:34:14.711Z,28.13
2023-02-05T19:36:42.492Z,34.92
2023-02-05T19:39:12.082Z,34.28
2023-02-05T19:41:40.071Z,28.40
2023-02-05T19:44:08.684Z,27.50
2023-02-05T19:46:47.260Z,28.13
2023-02-05T19:49:21.841Z,33.08
2023-02-05T19:51:52.086Z,30.33
2023-02-05T19:54:21.579Z,33.25
2023-02-05T19:56:49.488Z,31.52
2023-02-05T19:59:16.875Z,33.05
2023-02-05T20:01:45.227Z,30.00
2023-02-05T20:04:18.592Z,33.70
2023-02-05T20:06:47.037Z,33.05
2023-02-05T20:09:16.340Z,33.97
2023-02-05T20:11:46.839Z,35.85
2023-02-05T20:14:14.947Z,30.38
2023-02-05T20:16:45.138Z,36.40
2023-02-05T20:19:14.447Z,36.75
2023-02-05T20:21:42.242Z,32.42
2023-02-05T20:24:09.697Z,35.30
2023-02-05T20:26:37.771Z,29.27
2023-02-05T20:29:23.948Z,37.47
2023-02-05T20:31:52.580Z,33.75
2023-02-05T20:34:22.625Z,35.90
2023-02-05T20:36:51.748Z,37.03
2023-02-05T20:39:20.279Z,40.20
2023-02-05T20:41:50.008Z,41.67
2023-02-05T20:44:18.140Z,38.75
2023-02-05T20:46:45.479Z,38.00
2023-02-05T20:49:13.532Z,44.03
2023-02-05T20:51:41.337Z,43.95
2023-02-05T20:54:08.508Z,39.53
2023-02-05T20:56:36.034Z,43.50
2023-02-05T20:59:05.263Z,47.60
2023-02-05T21:01:34.734Z,50.13
2023-02-05T21:04:04.014Z,47.08
2023-02-05T21:06:36.930Z,45.70
2023-02-05T21:09:05.855Z,53.08
2023-02-05T21:11:33.313Z,48.40
2023-02-05T21:14:00.275Z,49.60
2023-02-05T21:16:28.281Z,56.92
2023-02-05T21:18:56.291Z,50.63
2023-02-05T21:21:28.925Z,52.22
2023-02-05T21:24:01.040Z,49.75
2023-02-05T21:26:31.669Z,49.78
2023-02-05T21:29:04.588Z,51.40
2023-02-05T21:31:36.271Z,54.40
2023-02-05T21:34:04.945Z,51.35
2023-02-05T21:36:32.312Z,46.22
2023-02-05T21:39:00.348Z,53.20
2023-02-05T21:41:27.890Z,57.20
2023-02-05T21:43:57.530Z,57.80
2023-02-05T21:46:27.080Z,50.20
2023-02-05T21:48:55.887Z,57.78
2023-02-05T21:51:24.945Z,50.70
2023-02-05T21:53:57.212Z,48.72
2023-02-05T21:56:44.764Z,55.97
2023-02-05T21:59:13.036Z,51.35
2023-02-05T22:01:42.130Z,55.67
2023-02-05T22:04:12.573Z,52.58
2023-02-05T22:06:39.817Z,51.20
2023-02-05T22:09:09.126Z,53.17
2023-02-05T22:11:38.539Z,59.33
2023-02-05T22:14:05.456Z,57.90
2023-02-05T22:16:34.318Z,53.17
2023-02-05T22:19:02.363Z,53.83
2023-02-05T22:21:35.363Z,56.65
2023-02-05T22:24:03.642Z,62.17
2023-02-05T22:26:34.388Z,57.70
2023-02-05T22:29:04.597Z,65.07
2023-02-05T22:31:33.142Z,58.03
2023-02-05T22:34:00.052Z,56.53
2023-02-05T22:36:30.030Z,57.47
2023-02-05T22:38:57.405Z,53.47
2023-02-05T22:41:27.158Z,60.13
2023-02-05T22:43:55.584Z,58.22
2023-02-05T22:46:25.002Z,52.45
2023-02-05T22:48:53.566Z,57.50
2023-02-05T22:51:26.858Z,60.50
2023-02-05T22:53:54.560Z,58.72
2023-02-05T22:56:22.367Z,54.38
2023-02-05T22:58:50.836Z,58.08
2023-02-05T23:01:24.017Z,53.40
2023-02-05T23:03:52.282Z,59.97
2023-02-05T23:06:26.231Z,65.22
2023-02-05T23:09:14.965Z,58.88
2023-02-05T23:11:43.218Z,68.70
2023-02-05T23:14:11.811Z,61.67
2023-02-05T23:16:41.832Z,60.47
2023-02-05T23:19:12.549Z,67.18
2023-02-05T23:21:41.782Z,68.03
2023-02-05T23:24:09.192Z,68.18
2023-02-05T23:26:42.718Z,70.40
2023-02-05T23:29:12.389Z,61.58
2023-02-05T23:31:40.673Z,59.22
2023-02-05T23:34:08.446Z,76.10
2023-02-05T23:36:35.647Z,66.25
2023-02-05T23:39:02.631Z,72.50
2023-02-05T23:41:35.851Z,77.93
2023-02-05T23:44:20.171Z,81.75
2023-02-05T23:46:49.128Z,73.07
2023-02-05T23:49:16.193Z,77.32
2023-02-05T23:51:43.725Z,84.53
2023-02-05T23:54:12.101Z,77.80
2023-02-05T23:56:39.993Z,87.03
2023-02-05T23:59:08.314Z,78.70
